Time;durP1;ratioP1;P1;durP2;ratioP2;P2;SDS_P1;SDS_P2;PMS_P1;PMS_P2;Temp;Humidity;BMP_temperature;BMP_pressure;BME280_temperature;BME280_humidity;BME280_pressure;Samples;Min_cycle;Max_cycle;Signal;HPM_P1;HPM_P2
2023/03/07 02:09:14;;;;;;;13.77;9.20;;;5.70;91.70;;;;;;6165796;22;20366;-76
2023/03/07 02:11:43;;;;;;;14.30;9.18;;;5.60;91.80;;;;;;6150779;23;20405;-75
2023/03/07 02:14:09;;;;;;;11.50;7.95;;;5.60;92.00;;;;;;6148774;23;20412;-75
2023/03/07 02:16:37;;;;;;;13.25;8.43;;;5.60;92.10;;;;;;6151388;23;20386;-76
2023/03/07 02:19:18;;;;;;;14.63;8.93;;;5.50;92.10;;;;;;6125523;23;20382;-76
2023/03/07 02:21:59;;;;;;;11.32;8.63;;;5.50;90.80;;;;;;6149109;23;20453;-75
2023/03/07 02:24:53;;;;;;;11.82;7.50;;;5.50;90.70;;;;;;6149329;23;21587;-75
2023/03/07 02:27:24;;;;;;;13.85;8.90;;;5.50;90.70;;;;;;6151349;23;20370;-76
2023/03/07 02:29:51;;;;;;;12.63;8.40;;;5.50;90.60;;;;;;6124285;23;20481;-75
2023/03/07 02:32:19;;;;;;;11.30;8.10;;;5.50;90.30;;;;;;6174405;23;20382;-75
2023/03/07 02:34:46;;;;;;;12.13;8.10;;;5.40;89.40;;;;;;6150632;23;20457;-75
2023/03/07 02:37:24;;;;;;;11.48;7.72;;;5.40;88.50;;;;;;6149522;23;20378;-76
2023/03/07 02:39:53;;;;;;;12.27;7.13;;;5.50;87.40;;;;;;6124158;23;20425;-75
2023/03/07 02:42:28;;;;;;;13.32;8.05;;;5.50;87.40;;;;;;6149630;23;20401;-75
2023/03/07 02:44:57;;;;;;;11.70;7.28;;;5.50;85.90;;;;;;6174113;23;20365;-76
2023/03/07 02:47:25;;;;;;;8.88;6.57;;;5.50;84.30;;;;;;6151021;23;20440;-75
2023/03/07 02:49:52;;;;;;;13.40;7.40;;;5.50;82.50;;;;;;6150580;23;20366;-75
2023/03/07 02:52:20;;;;;;;11.02;7.05;;;5.50;81.00;;;;;;6176086;23;20378;-76
2023/03/07 02:54:47;;;;;;;12.32;7.25;;;5.50;80.00;;;;;;6150827;23;20432;-75
2023/03/07 02:57:15;;;;;;;10.90;6.83;;;5.50;79.50;;;;;;6151479;23;20378;-76
2023/03/07 02:59:42;;;;;;;11.05;7.63;;;5.50;79.00;;;;;;6152239;23;20377;-75
2023/03/07 03:02:09;;;;;;;10.53;6.83;;;5.50;78.80;;;;;;6182674;23;20395;-76
2023/03/07 03:04:35;;;;;;;11.10;7.07;;;5.50;78.60;;;;;;6181741;23;20412;-76
2023/03/07 03:07:02;;;;;;;10.85;6.18;;;5.50;77.70;;;;;;6180974;23;20370;-76
2023/03/07 03:09:30;;;;;;;11.15;6.53;;;5.50;76.60;;;;;;6181036;23;20459;-75
2023/03/07 03:11:57;;;;;;;8.88;6.20;;;5.50;76.50;;;;;;6155864;23;20704;-75
2023/03/07 03:14:24;;;;;;;11.52;6.57;;;5.40;77.20;;;;;;6182379;23;20426;-76
2023/03/07 03:16:52;;;;;;;9.52;6.30;;;5.40;75.70;;;;;;6155247;23;20380;-75
2023/03/07 03:19:19;;;;;;;9.65;5.85;;;5.40;75.00;;;;;;6156160;23;20869;-76
2023/03/07 03:21:47;;;;;;;9.02;5.57;;;5.40;73.10;;;;;;6181367;23;20444;-76
2023/03/07 03:24:14;;;;;;;9.00;5.78;;;5.40;73.40;;;;;;6156598;23;20854;-75
2023/03/07 03:26:41;;;;;;;9.67;5.97;;;5.40;73.50;;;;;;6181463;23;20411;-75
2023/03/07 03:29:08;;;;;;;7.43;4.95;;;5.40;72.90;;;;;;6156299;23;20404;-76
2023/03/07 03:31:35;;;;;;;10.15;6.43;;;5.40;71.90;;;;;;6181487;23;20378;-76
2023/03/07 03:34:04;;;;;;;10.70;6.03;;;5.50;71.00;;;;;;6156347;23;20706;-76
2023/03/07 03:36:31;;;;;;;8.18;5.57;;;5.50;70.30;;;;;;6156153;23;20391;-76
2023/03/07 03:39:00;;;;;;;13.48;9.00;;;5.60;69.60;;;;;;6155932;23;20721;-76
2023/03/07 03:41:26;;;;;;;11.43;8.55;;;5.50;80.30;;;;;;6156426;23;20476;-76
2023/03/07 03:43:53;;;;;;;12.18;7.20;;;5.30;82.30;;;;;;6181475;23;20396;-76
2023/03/07 03:46:20;;;;;;;9.23;5.70;;;5.20;82.20;;;;;;6182482;23;20396;-76
2023/03/07 03:48:52;;;;;;;6.90;5.30;;;5.20;75.30;;;;;;6155132;23;20414;-75
2023/03/07 03:51:20;;;;;;;7.68;5.43;;;5.30;73.80;;;;;;6155606;23;20452;-79
2023/03/07 03:53:47;;;;;;;7.32;4.88;;;5.30;74.20;;;;;;6154737;23;20364;-75
2023/03/07 03:56:17;;;;;;;7.90;4.80;;;5.20;74.60;;;;;;6155926;23;20395;-75
2023/03/07 03:58:46;;;;;;;8.35;4.82;;;5.20;70.80;;;;;;6181826;23;20373;-78
2023/03/07 04:01:13;;;;;;;7.20;5.13;;;5.20;71.50;;;;;;6156118;23;20388;-77
2023/03/07 04:03:42;;;;;;;8.38;5.00;;;5.30;70.80;;;;;;6154453;23;20411;-79
2023/03/07 04:06:12;;;;;;;7.33;4.80;;;5.20;70.60;;;;;;6182004;23;20525;-78
2023/03/07 04:08:40;;;;;;;7.22;4.55;;;5.20;71.30;;;;;;6154629;23;20435;-78
2023/03/07 04:11:07;;;;;;;7.05;4.60;;;5.20;69.30;;;;;;6174928;23;20395;-78
2023/03/07 04:13:35;;;;;;;6.22;4.20;;;5.20;68.30;;;;;;6209818;23;20374;-78
2023/03/07 04:16:02;;;;;;;6.38;4.65;;;5.20;65.50;;;;;;6209440;23;20757;-78
2023/03/07 04:18:29;;;;;;;7.07;3.45;;;5.30;63.80;;;;;;6210528;23;20379;-78
2023/03/07 04:20:56;;;;;;;5.65;3.65;;;5.40;62.60;;;;;;6209495;23;20394;-78
2023/03/07 04:23:24;;;;;;;7.07;4.07;;;5.50;62.00;;;;;;6209996;23;20415;-78
2023/03/07 04:25:56;;;;;;;6.90;4.40;;;5.50;62.10;;;;;;6209603;23;20383;-78
2023/03/07 04:28:25;;;;;;;5.82;3.85;;;5.50;63.10;;;;;;6210318;23;20378;-78
2023/03/07 04:30:52;;;;;;;7.25;3.88;;;5.50;62.20;;;;;;6209706;23;20387;-78
2023/03/07 04:33:19;;;;;;;6.63;4.13;;;5.50;63.20;;;;;;6210049;23;20494;-78
2023/03/07 04:35:46;;;;;;;6.38;3.88;;;5.40;62.30;;;;;;6209438;23;20382;-78
2023/03/07 04:38:14;;;;;;;7.53;3.90;;;5.40;62.10;;;;;;6210101;23;20375;-79
2023/03/07 04:40:41;;;;;;;6.57;4.25;;;5.40;61.40;;;;;;6209497;23;20705;-79
2023/03/07 04:43:08;;;;;;;7.35;4.25;;;5.40;61.60;;;;;;6210090;23;20409;-78
2023/03/07 04:45:36;;;;;;;6.18;4.03;;;5.30;62.20;;;;;;6211567;23;20378;-78
2023/03/07 04:48:03;;;;;;;5.13;3.70;;;5.30;62.50;;;;;;6210711;23;20366;-78
2023/03/07 04:50:30;;;;;;;5.95;3.83;;;5.30;63.10;;;;;;6210012;23;20394;-78
2023/03/07 04:52:57;;;;;;;5.07;3.28;;;5.30;61.50;;;;;;6209603;23;20393;-78
2023/03/07 04:55:24;;;;;;;5.22;3.75;;;5.30;61.20;;;;;;6210232;23;20457;-78
2023/03/07 04:57:51;;;;;;;5.00;3.42;;;5.30;61.00;;;;;;6209326;23;20378;-78
2023/03/07 05:00:19;;;;;;;4.78;3.10;;;5.20;60.70;;;;;;6210307;23;20449;-79
2023/03/07 05:02:47;;;;;;;6.13;3.40;;;5.30;59.90;;;;;;6208929;23;20375;-78
2023/03/07 05:05:15;;;;;;;5.28;3.50;;;5.30;59.70;;;;;;6210135;23;20371;-78
2023/03/07 05:07:42;;;;;;;5.90;3.50;;;5.20;59.50;;;;;;6209908;23;20378;-78
2023/03/07 05:10:10;;;;;;;5.50;3.05;;;5.20;59.40;;;;;;6197166;23;20380;-79
2023/03/07 05:12:37;;;;;;;6.03;3.30;;;5.20;59.00;;;;;;6155265;23;20380;-78
2023/03/07 05:15:05;;;;;;;5.40;3.40;;;5.20;58.60;;;;;;6154472;23;20806;-78
2023/03/07 05:17:31;;;;;;;6.20;3.42;;;5.20;58.40;;;;;;6180879;23;20388;-78
2023/03/07 05:19:58;;;;;;;5.70;3.77;;;5.20;58.30;;;;;;6154308;23;20439;-79
2023/03/07 05:22:25;;;;;;;6.30;3.60;;;5.10;59.00;;;;;;6154844;23;20407;-78
2023/03/07 05:24:52;;;;;;;6.07;3.65;;;5.00;59.80;;;;;;6154152;23;20403;-78
2023/03/07 05:27:19;;;;;;;6.38;3.70;;;5.00;60.40;;;;;;6155191;23;20422;-78
2023/03/07 05:29:46;;;;;;;4.72;3.35;;;5.00;59.80;;;;;;6153934;23;20380;-78
2023/03/07 05:32:14;;;;;;;5.83;2.93;;;4.90;59.20;;;;;;6155202;23;20387;-78
2023/03/07 05:34:41;;;;;;;7.15;3.60;;;4.90;58.50;;;;;;6181056;23;20450;-79
2023/03/07 05:37:08;;;;;;;4.53;2.95;;;4.90;58.00;;;;;;6153921;23;20774;-78
2023/03/07 05:39:35;;;;;;;6.07;3.70;;;5.00;57.90;;;;;;6155375;23;20380;-77
2023/03/07 05:42:02;;;;;;;6.68;3.60;;;5.00;58.20;;;;;;6154317;23;20379;-78
2023/03/07 05:44:28;;;;;;;6.60;3.88;;;5.00;58.90;;;;;;6154895;23;20439;-78
2023/03/07 05:46:57;;;;;;;6.55;3.70;;;5.00;59.30;;;;;;6154303;23;20427;-78
2023/03/07 05:49:24;;;;;;;8.85;5.15;;;4.90;59.40;;;;;;6155168;23;20399;-78
2023/03/07 05:51:51;;;;;;;12.07;6.85;;;5.00;58.60;;;;;;6153369;23;20407;-78
2023/03/07 05:54:18;;;;;;;11.30;6.85;;;5.00;58.20;;;;;;6155298;23;20368;-78
2023/03/07 05:56:44;;;;;;;10.50;6.50;;;5.10;57.30;;;;;;6154726;23;20364;-78
2023/03/07 05:59:14;;;;;;;13.15;7.45;;;5.10;56.80;;;;;;6154389;23;20372;-78
2023/03/07 06:01:41;;;;;;;14.48;8.18;;;5.10;56.90;;;;;;6143042;23;20372;-79
2023/03/07 06:04:09;;;;;;;12.73;6.57;;;5.10;56.40;;;;;;6154249;23;20360;-78
2023/03/07 06:06:35;;;;;;;9.05;5.32;;;5.10;56.00;;;;;;6180894;23;20846;-78
2023/03/07 06:09:04;;;;;;;7.40;3.90;;;5.00;56.80;;;;;;6154008;23;20376;-78
2023/03/07 06:11:32;;;;;;;7.35;3.97;;;4.90;56.30;;;;;;6181835;23;20369;-78
2023/03/07 06:13:59;;;;;;;7.45;4.50;;;4.90;55.70;;;;;;6210131;23;20363;-78
2023/03/07 06:16:26;;;;;;;6.95;4.35;;;4.90;56.50;;;;;;6209810;23;20437;-79
2023/03/07 06:18:53;;;;;;;6.90;4.15;;;4.90;56.20;;;;;;6207987;23;20379;-78
2023/03/07 06:21:19;;;;;;;5.07;3.03;;;4.90;57.00;;;;;;6186620;23;20395;-78
2023/03/07 06:23:46;;;;;;;7.85;3.58;;;4.80;57.50;;;;;;6212636;23;20371;-78
2023/03/07 06:26:13;;;;;;;4.88;3.03;;;4.80;57.80;;;;;;6211952;23;20420;-78
2023/03/07 06:28:41;;;;;;;7.23;4.23;;;4.70;58.40;;;;;;6210996;23;20741;-78
2023/03/07 06:31:10;;;;;;;5.93;3.63;;;4.70;58.10;;;;;;6210796;23;20371;-78
2023/03/07 06:33:38;;;;;;;6.47;3.45;;;4.60;58.00;;;;;;6211318;23;20371;-78
2023/03/07 06:36:10;;;;;;;8.05;3.88;;;4.70;57.50;;;;;;6212086;23;20374;-79
2023/03/07 06:38:37;;;;;;;6.00;3.40;;;4.70;56.80;;;;;;6211208;23;20550;-78
2023/03/07 06:41:05;;;;;;;5.00;3.40;;;4.70;56.90;;;;;;6210823;23;20756;-78
2023/03/07 06:43:32;;;;;;;5.55;3.40;;;4.70;56.80;;;;;;6186136;23;20402;-78
2023/03/07 06:46:00;;;;;;;5.50;3.35;;;4.60;57.50;;;;;;6211827;23;20421;-78
2023/03/07 06:48:26;;;;;;;6.53;3.50;;;4.70;56.10;;;;;;6186116;23;20367;-78
2023/03/07 06:50:53;;;;;;;6.63;3.50;;;4.80;56.00;;;;;;6211438;23;20397;-78
2023/03/07 06:53:20;;;;;;;6.15;3.30;;;4.80;56.10;;;;;;6211081;23;20374;-78
2023/03/07 06:55:51;;;;;;;7.60;3.65;;;4.90;55.00;;;;;;6213264;23;20890;-78
2023/03/07 06:58:18;;;;;;;5.50;3.65;;;4.90;55.10;;;;;;6185384;23;20377;-78
2023/03/07 07:00:44;;;;;;;6.45;3.80;;;5.00;54.60;;;;;;6185871;23;20402;-78
2023/03/07 07:03:13;;;;;;;6.13;3.87;;;5.10;54.10;;;;;;6184604;23;20378;-78
2023/03/07 07:05:40;;;;;;;6.03;3.60;;;5.10;54.00;;;;;;6186515;23;20386;-78
2023/03/07 07:08:07;;;;;;;5.70;3.40;;;5.20;53.10;;;;;;6211301;23;20370;-78
2023/03/07 07:10:34;;;;;;;7.32;3.88;;;5.30;52.70;;;;;;6192711;23;20447;-78
2023/03/07 07:13:00;;;;;;;6.75;4.13;;;5.30;53.10;;;;;;6154982;23;20443;-78
2023/03/07 07:15:27;;;;;;;5.45;3.60;;;5.40;53.40;;;;;;6156450;23;20373;-78
2023/03/07 07:17:54;;;;;;;7.70;3.75;;;5.40;52.90;;;;;;6181808;23;20384;-78
2023/03/07 07:20:21;;;;;;;6.13;3.47;;;5.50;52.40;;;;;;6180448;23;20360;-78
2023/03/07 07:22:48;;;;;;;5.75;3.15;;;5.50;52.20;;;;;;6150839;23;20405;-78
2023/03/07 07:25:15;;;;;;;5.43;3.10;;;5.60;52.60;;;;;;6151151;23;20370;-78
2023/03/07 07:27:42;;;;;;;4.32;3.20;;;5.60;52.70;;;;;;6181713;23;20757;-78
2023/03/07 07:30:09;;;;;;;4.82;3.08;;;5.50;53.00;;;;;;6155685;23;20435;-78
2023/03/07 07:32:36;;;;;;;6.57;3.65;;;5.50;53.20;;;;;;6155756;23;20435;-78
2023/03/07 07:35:04;;;;;;;5.85;3.30;;;5.50;53.20;;;;;;6155490;23;20380;-78
2023/03/07 07:37:31;;;;;;;6.80;3.97;;;5.50;53.00;;;;;;6155693;23;20434;-78
2023/03/07 07:39:58;;;;;;;5.82;3.70;;;5.60;52.40;;;;;;6155719;23;20399;-78
2023/03/07 07:42:24;;;;;;;6.68;3.90;;;5.60;52.40;;;;;;6155861;23;20376;-79
2023/03/07 07:44:51;;;;;;;7.13;4.18;;;5.70;51.90;;;;;;6156184;23;20435;-78
2023/03/07 07:47:18;;;;;;;6.97;4.00;;;5.80;51.30;;;;;;6154564;23;20384;-78
2023/03/07 07:49:45;;;;;;;7.10;4.07;;;5.90;51.20;;;;;;6155933;23;20376;-78
2023/03/07 07:52:12;;;;;;;7.32;4.22;;;5.90;51.30;;;;;;6154319;23;20456;-77
2023/03/07 07:54:39;;;;;;;7.82;4.32;;;6.00;51.10;;;;;;6138748;23;20773;-78
2023/03/07 07:57:06;;;;;;;7.93;4.35;;;6.00;51.10;;;;;;6149639;23;20401;-78
2023/03/07 07:59:33;;;;;;;7.77;4.43;;;6.10;50.10;;;;;;6154929;23;20388;-78
2023/03/07 08:02:00;;;;;;;7.88;4.35;;;6.20;49.60;;;;;;6154919;23;20679;-79
2023/03/07 08:04:28;;;;;;;7.38;4.50;;;6.20;48.80;;;;;;6155733;23;20379;-78
2023/03/07 08:06:54;;;;;;;7.13;4.10;;;6.30;48.90;;;;;;6156000;23;20697;-78
2023/03/07 08:09:21;;;;;;;9.05;5.03;;;6.30;49.00;;;;;;6154465;23;20372;-78
2023/03/07 08:11:48;;;;;;;8.15;4.13;;;6.40;48.60;;;;;;6180446;23;20388;-78
2023/03/07 08:14:15;;;;;;;7.82;4.07;;;6.50;48.50;;;;;;6154602;23;20392;-78
2023/03/07 08:16:42;;;;;;;6.65;4.20;;;6.50;48.20;;;;;;6150758;23;20401;-78
2023/03/07 08:19:09;;;;;;;9.77;4.33;;;6.60;48.10;;;;;;6154373;23;20920;-78
2023/03/07 08:21:37;;;;;;;7.40;4.30;;;6.70;48.40;;;;;;6155826;23;20403;-78
2023/03/07 08:24:04;;;;;;;8.55;4.30;;;6.80;48.90;;;;;;6154507;23;20720;-77
2023/03/07 08:26:31;;;;;;;7.18;3.90;;;6.90;48.30;;;;;;6155857;23;20383;-78
2023/03/07 08:28:58;;;;;;;8.38;4.25;;;7.10;48.70;;;;;;6150122;23;20385;-78
2023/03/07 08:31:25;;;;;;;7.05;4.47;;;7.20;48.80;;;;;;6176701;23;20382;-77
2023/03/07 08:33:52;;;;;;;7.85;4.40;;;7.30;46.80;;;;;;6150093;23;20381;-78
2023/03/07 08:36:20;;;;;;;7.32;4.10;;;7.40;47.00;;;;;;6178371;23;20431;-78
2023/03/07 08:38:51;;;;;;;7.53;4.40;;;7.50;47.20;;;;;;6150270;23;20401;-78
2023/03/07 08:41:20;;;;;;;9.03;4.67;;;7.80;49.00;;;;;;6175084;23;20386;-79
2023/03/07 08:43:47;;;;;;;8.38;4.68;;;8.10;47.70;;;;;;6154405;23;20443;-78
2023/03/07 08:46:14;;;;;;;7.53;4.28;;;8.30;47.40;;;;;;6178614;23;20372;-77
2023/03/07 08:48:41;;;;;;;7.13;3.80;;;8.60;46.10;;;;;;6149867;23;20378;-78
2023/03/07 08:51:11;;;;;;;9.00;4.35;;;8.80;43.90;;;;;;6174686;23;20404;-78
2023/03/07 08:53:38;;;;;;;5.27;3.80;;;9.10;43.80;;;;;;6161753;23;20831;-78
2023/03/07 08:56:07;;;;;;;9.85;4.40;;;9.10;43.10;;;;;;6154483;23;20696;-78
2023/03/07 08:58:34;;;;;;;7.25;3.67;;;9.20;43.30;;;;;;6154497;23;20380;-78
2023/03/07 09:01:02;;;;;;;5.68;3.28;;;9.30;42.80;;;;;;6180304;23;20459;-78
2023/03/07 09:03:29;;;;;;;7.03;3.75;;;9.40;43.50;;;;;;6178923;23;21747;-78
2023/03/07 09:05:56;;;;;;;5.68;3.80;;;9.50;42.60;;;;;;6179922;23;20377;-80
2023/03/07 09:08:23;;;;;;;6.78;3.20;;;9.60;41.80;;;;;;6151780;23;20381;-75
2023/03/07 09:10:50;;;;;;;8.47;3.73;;;9.70;41.00;;;;;;6180973;23;20714;-78
2023/03/07 09:13:17;;;;;;;6.07;3.70;;;9.70;40.80;;;;;;6153400;23;20426;-78
2023/03/07 09:15:44;;;;;;;5.22;3.08;;;9.70;42.00;;;;;;6149481;23;20749;-75
2023/03/07 09:18:11;;;;;;;7.53;4.47;;;9.80;43.00;;;;;;6148521;23;20859;-76
2023/03/07 09:20:39;;;;;;;7.75;4.47;;;9.80;42.70;;;;;;6168581;23;20408;-78
2023/03/07 09:23:07;;;;;;;9.38;5.80;;;9.80;43.20;;;;;;6153408;23;20376;-80
2023/03/07 09:25:35;;;;;;;8.60;5.50;;;9.80;43.00;;;;;;6154649;23;20732;-78
2023/03/07 09:28:03;;;;;;;8.68;5.25;;;9.90;43.60;;;;;;6154185;23;20443;-78
2023/03/07 09:30:30;;;;;;;8.43;5.35;;;9.90;43.20;;;;;;6153830;23;20707;-78
2023/03/07 09:32:57;;;;;;;11.38;7.50;;;10.00;45.00;;;;;;6155300;23;20380;-76
2023/03/07 09:35:24;;;;;;;16.73;11.07;;;10.10;48.00;;;;;;6153919;23;20380;-78
2023/03/07 09:37:51;;;;;;;15.88;11.80;;;10.20;53.10;;;;;;6154723;23;20404;-76
2023/03/07 09:40:23;;;;;;;17.15;12.27;;;10.30;56.30;;;;;;6154028;23;20912;-78
2023/03/07 09:43:03;;;;;;;14.40;11.25;;;10.40;57.80;;;;;;6154771;23;20380;-78
2023/03/07 09:45:42;;;;;;;14.75;11.18;;;10.60;58.20;;;;;;6153010;23;20396;-76
2023/03/07 09:48:32;;;;;;;20.20;12.38;;;10.80;58.90;;;;;;6152074;23;20399;-76
2023/03/07 09:51:38;;;;;;;16.60;12.43;;;11.10;60.30;;;;;;6154649;23;20406;-79
2023/03/07 09:54:10;;;;;;;15.80;11.33;;;11.20;58.50;;;;;;6003466;23;20386;-78
2023/03/07 09:56:46;;;;;;;15.18;10.77;;;11.30;58.50;;;;;;6132173;23;20372;-78
2023/03/07 09:59:37;;;;;;;17.27;12.27;;;11.30;57.30;;;;;;6153750;23;20360;-79
2023/03/07 10:02:16;;;;;;;16.60;12.10;;;11.50;58.60;;;;;;6179244;23;20380;-78
2023/03/07 10:05:10;;;;;;;15.50;10.95;;;11.60;58.70;;;;;;6153588;23;20377;-79
2023/03/07 10:07:37;;;;;;;16.15;11.68;;;11.70;58.10;;;;;;6153894;23;20384;-79
2023/03/07 10:10:11;;;;;;;13.65;10.68;;;12.00;57.90;;;;;;6154553;23;20908;-79
2023/03/07 10:13:00;;;;;;;15.25;11.07;;;11.90;57.00;;;;;;6171419;23;20398;-79
2023/03/07 10:15:55;;;;;;;15.52;11.52;;;12.00;58.90;;;;;;6210167;23;20378;-79
2023/03/07 10:18:21;;;;;;;16.33;12.18;;;12.10;59.00;;;;;;6209783;23;20378;-79
2023/03/07 10:21:01;;;;;;;16.85;11.60;;;12.30;61.60;;;;;;6178994;23;20373;-78
2023/03/07 10:23:33;;;;;;;13.85;10.23;;;12.40;62.90;;;;;;6176671;23;20377;-79
2023/03/07 10:26:11;;;;;;;18.07;12.87;;;12.50;61.30;;;;;;6171178;23;20417;-79
2023/03/07 10:28:41;;;;;;;19.02;12.35;;;12.40;59.90;;;;;;6166198;23;20432;-78
2023/03/07 10:31:19;;;;;;;16.00;11.90;;;12.60;62.70;;;;;;6204347;23;20369;-78
2023/03/07 10:33:48;;;;;;;17.73;12.48;;;12.70;63.30;;;;;;6197814;23;20363;-78
2023/03/07 10:36:38;;;;;;;18.55;12.20;;;12.80;62.70;;;;;;6184809;23;20398;-78
2023/03/07 10:39:26;;;;;;;19.03;13.43;;;13.00;62.90;;;;;;6210003;23;20366;-78
2023/03/07 10:41:53;;;;;;;16.23;12.32;;;12.90;61.80;;;;;;6177895;23;20368;-78
2023/03/07 10:44:21;;;;;;;18.15;12.77;;;12.90;63.30;;;;;;6205362;23;20373;-78
2023/03/07 10:46:56;;;;;;;13.90;10.90;;;12.90;64.60;;;;;;6209676;23;20433;-79
2023/03/07 10:49:35;;;;;;;16.05;11.48;;;13.10;65.50;;;;;;6181719;23;20376;-78
2023/03/07 10:52:11;;;;;;;21.05;13.45;;;13.20;63.80;;;;;;6178202;23;20377;-78
2023/03/07 10:54:38;;;;;;;18.75;12.70;;;13.30;61.50;;;;;;6204124;23;20376;-78
2023/03/07 10:57:17;;;;;;;16.77;12.02;;;13.20;63.10;;;;;;6178354;23;20431;-78
2023/03/07 10:59:54;;;;;;;17.98;12.15;;;13.20;63.90;;;;;;6198597;23;20383;-78
2023/03/07 11:02:40;;;;;;;20.30;13.60;;;13.20;63.50;;;;;;6180907;23;20403;-79
2023/03/07 11:05:35;;;;;;;20.88;13.52;;;13.40;63.90;;;;;;6209382;23;20439;-78
2023/03/07 11:08:33;;;;;;;17.98;12.75;;;13.50;64.90;;;;;;6181472;23;20709;-79
2023/03/07 11:11:02;;;;;;;20.20;12.82;;;13.60;65.70;;;;;;6154735;23;20384;-79
2023/03/07 11:13:30;;;;;;;19.25;12.40;;;13.70;63.90;;;;;;6209588;23;20376;-79
2023/03/07 11:16:20;;;;;;;17.88;12.00;;;13.70;64.00;;;;;;6180132;23;20789;-79
2023/03/07 11:18:47;;;;;;;18.40;12.75;;;13.60;64.00;;;;;;6204240;23;20775;-79
2023/03/07 11:21:29;;;;;;;21.60;14.32;;;13.60;65.40;;;;;;6181278;23;20906;-78
2023/03/07 11:24:30;;;;;;;19.95;14.25;;;13.50;65.90;;;;;;6179938;23;20448;-79
2023/03/07 11:26:58;;;;;;;21.90;14.82;;;13.30;66.20;;;;;;6199811;23;20376;-79
2023/03/07 11:29:27;;;;;;;21.40;14.82;;;13.30;67.00;;;;;;6208886;23;20380;-78
2023/03/07 11:32:09;;;;;;;20.00;15.00;;;13.40;68.60;;;;;;6179808;23;20431;-78
2023/03/07 11:34:51;;;;;;;24.67;16.40;;;13.50;67.70;;;;;;6212544;23;20473;-79
2023/03/07 11:37:39;;;;;;;20.90;14.43;;;13.50;65.00;;;;;;6181118;23;20376;-78
2023/03/07 11:40:11;;;;;;;23.55;15.52;;;13.40;67.00;;;;;;6179351;23;20682;-79
2023/03/07 11:42:47;;;;;;;23.10;15.77;;;13.50;66.40;;;;;;6169189;23;20428;-79
2023/03/07 11:45:42;;;;;;;21.30;14.85;;;13.50;66.20;;;;;;6174321;23;20408;-79
2023/03/07 11:48:41;;;;;;;19.27;14.82;;;13.50;66.20;;;;;;6179891;23;20729;-79
2023/03/07 11:51:30;;;;;;;21.30;15.45;;;13.60;66.00;;;;;;6204420;23;20423;-78
2023/03/07 11:54:10;;;;;;;21.60;15.32;;;13.60;66.00;;;;;;6204450;23;20440;-76
2023/03/07 11:56:43;;;;;;;21.65;14.95;;;13.70;64.30;;;;;;6210026;23;20417;-79
2023/03/07 11:59:42;;;;;;;22.52;15.18;;;13.70;63.90;;;;;;6179517;23;20411;-79
2023/03/07 12:02:34;;;;;;;17.63;13.48;;;13.90;64.90;;;;;;6179320;23;20709;-79
2023/03/07 12:05:16;;;;;;;19.63;13.55;;;13.90;63.50;;;;;;6190143;23;20367;-79
2023/03/07 12:08:14;;;;;;;18.27;13.17;;;14.00;61.30;;;;;;6211529;23;20425;-79
2023/03/07 12:11:15;;;;;;;18.70;14.32;;;13.90;62.40;;;;;;6191585;23;20372;-79
2023/03/07 12:13:42;;;;;;;20.52;15.05;;;14.10;64.70;;;;;;6154615;23;20365;-79
2023/03/07 12:16:18;;;;;;;19.17;14.20;;;14.20;61.30;;;;;;6155334;23;20758;-79
2023/03/07 12:19:10;;;;;;;24.70;17.20;;;14.20;58.20;;;;;;6180440;23;20380;-79
2023/03/07 12:21:49;;;;;;;15.70;11.05;;;14.10;57.50;;;;;;6179981;23;20738;-79
2023/03/07 12:24:29;;;;;;;15.48;11.52;;;14.10;56.90;;;;;;6154910;23;20408;-78
2023/03/07 12:27:22;;;;;;;13.93;10.67;;;14.20;56.60;;;;;;6180073;23;20423;-79
2023/03/07 12:30:03;;;;;;;16.15;11.20;;;14.40;57.00;;;;;;6179879;23;20384;-79
2023/03/07 12:32:33;;;;;;;19.15;12.32;;;14.70;53.50;;;;;;6154979;23;20415;-79
2023/03/07 12:35:20;;;;;;;13.68;9.80;;;14.80;50.70;;;;;;6154030;23;20368;-78
2023/03/07 12:37:52;;;;;;;15.90;11.57;;;14.80;52.10;;;;;;6154536;23;20372;-79
2023/03/07 12:40:40;;;;;;;15.73;11.75;;;14.90;51.20;;;;;;6155560;23;20778;-76
2023/03/07 12:43:17;;;;;;;16.88;12.93;;;15.00;51.70;;;;;;6178282;23;20427;-79
2023/03/07 12:45:52;;;;;;;18.58;13.57;;;15.00;51.20;;;;;;6154415;23;20388;-79
2023/03/07 12:48:38;;;;;;;17.17;12.85;;;15.00;51.60;;;;;;6155731;23;20482;-79
2023/03/07 12:51:05;;;;;;;16.05;11.75;;;14.90;51.70;;;;;;6154248;23;20372;-79
2023/03/07 12:53:48;;;;;;;13.95;10.52;;;14.90;52.30;;;;;;6181437;23;20388;-77
2023/03/07 12:56:30;;;;;;;17.40;13.07;;;15.00;52.30;;;;;;6154806;23;20746;-77
2023/03/07 12:59:13;;;;;;;16.65;11.80;;;14.90;52.40;;;;;;6154663;23;20743;-77
2023/03/07 13:02:28;;;;;;;20.45;13.70;;;15.00;52.90;;;;;;6155282;23;20418;-78
2023/03/07 13:04:56;;;;;;;16.67;12.03;;;15.20;53.10;;;;;;6154414;23;20372;-78
2023/03/07 13:07:25;;;;;;;15.30;10.85;;;15.10;51.40;;;;;;6155180;23;20372;-78
2023/03/07 13:09:54;;;;;;;17.13;12.15;;;15.10;51.40;;;;;;6153735;23;20379;-78
2023/03/07 13:12:28;;;;;;;19.58;13.70;;;15.00;49.50;;;;;;6154938;23;20403;-78
2023/03/07 13:15:01;;;;;;;14.52;10.30;;;14.70;50.90;;;;;;6154824;23;20431;-78
2023/03/07 13:17:34;;;;;;;16.75;11.63;;;14.60;52.00;;;;;;6155118;23;20372;-77
2023/03/07 13:20:28;;;;;;;17.48;12.68;;;14.60;51.90;;;;;;6152490;23;20444;-78
2023/03/07 13:22:58;;;;;;;16.10;11.40;;;14.50;50.80;;;;;;6154146;23;20380;-77
2023/03/07 13:25:25;;;;;;;13.80;10.27;;;14.30;50.10;;;;;;6155142;23;20443;-77
2023/03/07 13:27:58;;;;;;;16.73;11.55;;;14.20;51.60;;;;;;6156218;23;20379;-77
2023/03/07 13:30:28;;;;;;;14.07;10.80;;;14.20;53.20;;;;;;6154773;23;20376;-77
2023/03/07 13:33:01;;;;;;;15.90;12.30;;;14.10;52.30;;;;;;6154071;23;20379;-77
2023/03/07 13:35:27;;;;;;;14.90;10.85;;;14.10;52.50;;;;;;6155222;23;20706;-77
2023/03/07 13:38:09;;;;;;;14.85;10.55;;;14.00;51.50;;;;;;6179768;23;20403;-78
2023/03/07 13:40:49;;;;;;;19.05;13.73;;;14.00;51.90;;;;;;6155165;23;20455;-77
2023/03/07 13:43:22;;;;;;;17.63;12.63;;;13.90;50.50;;;;;;6154448;23;20446;-77
2023/03/07 13:46:03;;;;;;;19.63;12.25;;;13.80;51.80;;;;;;6179599;23;20383;-78
2023/03/07 13:48:30;;;;;;;19.00;11.37;;;13.80;52.20;;;;;;6153924;23;20372;-78
2023/03/07 13:51:00;;;;;;;16.73;10.88;;;13.80;53.60;;;;;;6154290;23;20377;-78
2023/03/07 13:53:26;;;;;;;18.75;12.48;;;13.90;53.70;;;;;;6181091;23;20372;-77
2023/03/07 13:56:23;;;;;;;15.80;11.73;;;14.00;53.00;;;;;;6154321;23;20396;-78
2023/03/07 13:58:56;;;;;;;16.08;10.90;;;13.90;52.50;;;;;;6154709;23;20372;-78
2023/03/07 14:01:43;;;;;;;15.63;10.43;;;13.80;53.50;;;;;;6154071;23;20834;-79
2023/03/07 14:04:31;;;;;;;14.65;10.45;;;13.80;54.10;;;;;;6154184;23;20384;-80
2023/03/07 14:07:21;;;;;;;14.23;10.37;;;13.80;51.70;;;;;;6155666;23;20408;-78
2023/03/07 14:09:56;;;;;;;18.40;11.57;;;13.80;52.30;;;;;;6156776;23;20494;-78
2023/03/07 14:12:31;;;;;;;12.77;9.05;;;13.80;52.20;;;;;;6178107;23;20419;-78
2023/03/07 14:15:23;;;;;;;14.60;10.70;;;13.90;51.50;;;;;;6180856;23;20396;-79
2023/03/07 14:17:53;;;;;;;15.70;10.70;;;13.90;51.30;;;;;;6139564;23;20437;-79
2023/03/07 14:20:40;;;;;;;14.43;11.15;;;13.90;52.00;;;;;;6175647;23;20412;-78
2023/03/07 14:23:49;;;;;;;15.50;10.65;;;13.90;52.30;;;;;;6153966;23;20364;-78
2023/03/07 14:26:32;;;;;;;16.03;11.10;;;13.90;52.10;;;;;;6154319;23;20439;-79
2023/03/07 14:29:02;;;;;;;16.13;11.35;;;13.80;53.10;;;;;;6178471;23;20400;-78
2023/03/07 14:31:40;;;;;;;12.90;9.40;;;13.80;53.40;;;;;;6154653;23;20431;-78
2023/03/07 14:34:27;;;;;;;13.63;10.40;;;13.70;53.30;;;;;;6178289;23;20486;-79
2023/03/07 14:36:56;;;;;;;14.18;10.20;;;13.70;53.20;;;;;;6178266;23;20376;-78
2023/03/07 14:39:25;;;;;;;13.27;9.30;;;13.70;50.80;;;;;;6154533;23;20896;-78
2023/03/07 14:42:35;;;;;;;12.68;9.52;;;13.60;50.60;;;;;;6180922;23;20466;-78
2023/03/07 14:45:20;;;;;;;12.68;9.82;;;13.50;51.70;;;;;;6155284;23;20364;-78
2023/03/07 14:47:59;;;;;;;14.30;10.93;;;13.50;52.90;;;;;;6155342;23;20467;-78
2023/03/07 14:50:29;;;;;;;15.40;10.52;;;13.40;53.80;;;;;;6156127;23;20434;-79
2023/03/07 14:53:18;;;;;;;16.52;11.10;;;13.40;53.40;;;;;;6180515;23;20423;-78
2023/03/07 14:55:48;;;;;;;17.97;10.83;;;13.30;54.30;;;;;;6155252;23;20427;-78
2023/03/07 14:58:23;;;;;;;14.87;9.80;;;13.20;54.60;;;;;;6181207;23;20452;-78
2023/03/07 15:01:18;;;;;;;13.95;9.45;;;13.20;54.50;;;;;;6180041;23;20376;-78
2023/03/07 15:03:51;;;;;;;14.10;10.05;;;13.20;54.70;;;;;;6181440;23;20377;-79
2023/03/07 15:06:24;;;;;;;13.80;8.88;;;13.20;55.10;;;;;;6182330;23;20391;-78
2023/03/07 15:08:54;;;;;;;16.80;10.77;;;13.20;54.60;;;;;;6180388;23;20462;-78
2023/03/07 15:11:42;;;;;;;13.32;9.02;;;13.20;54.40;;;;;;6179984;23;20746;-78
2023/03/07 15:14:18;;;;;;;10.45;7.60;;;13.20;54.10;;;;;;6155521;23;20399;-78
2023/03/07 15:16:50;;;;;;;12.38;8.23;;;13.20;53.80;;;;;;6140166;23;20374;-78
2023/03/07 15:19:24;;;;;;;11.70;7.50;;;13.20;54.00;;;;;;6151428;23;20374;-79